WIPP

Sultan Mahmud Badaruddin II Airport

Palembang-Sumatra Island, Indonesia
TAF WIPP 251100Z 2512/2612 12006KT 9999 SCT012 TEMPO 2521/2601 18004KT 3000 BR
Issued Valid From Valid To
Sep-25 @ 11:00 UTC
(7 hours ago)
Sep-25 @ 12:00 UTC
(6 hours ago)
Sep-26 @ 12:00 UTC
(in 18 hours)
Sep-25 @ 12:00 to Sep-26 @ 12:00
TAF WIPP 251100Z 2512/2612 12006KT 9999 SCT012
Wind Visibility Clouds
120° at 6 knots 10,000+ meters
  • Scattered at 1,200' AGL
Temporary Sep-25 @ 21:00 to Sep-26 @ 01:00
TEMPO 2521/2601 18004KT 3000 BR
Wind Visibility Conditions
180° at 4 knots 2,993 meters
  • Mist
TAF WIPP 251100Z 2512/2612 12006KT 9999 SCT012 TEMPO 2521/2601 18004KT 3000 BR
Issued Sep-25 @ 11:00 UTC
(7 hours ago)
Valid From Sep-25 @ 12:00 UTC
(6 hours ago)
Valid To Sep-26 @ 12:00 UTC
(in 18 hours)
Sep-25 @ 12:00 - Sep-26 @ 12:00
Wind Visibility
120° at 6 knots 10,000+ meters
Clouds
  • Scattered at 1,200' AGL
Temporary Sep-25 @ 21:00 - Sep-26 @ 01:00
Wind Visibility
180° at 4 knots 2,993 meters
Conditions
  • Mist